Time;durP1;ratioP1;P1;durP2;ratioP2;P2;SDS_P1;SDS_P2;PMS_P1;PMS_P2;Temp;Humidity;BMP_temperature;BMP_pressure;BME280_temperature;BME280_humidity;BME280_pressure;Samples;Min_cycle;Max_cycle;Signal;HPM_P1;HPM_P2
2023/12/27 00:01:47;;;;;;;17.53;6.47;;;;;;;-143.21;56.29;72992.41;6097864;23;20264;-88
2023/12/27 00:04:14;;;;;;;17.43;6.00;;;;;;;-143.21;56.27;72986.47;6098079;23;20184;-88
2023/12/27 00:06:46;;;;;;;10.33;6.27;;;;;;;-143.21;55.90;72984.50;6096941;23;20192;-87
2023/12/27 00:09:21;;;;;;;15.60;6.43;;;;;;;-143.21;56.35;73010.28;6095826;23;20568;-86
2023/12/27 00:11:48;;;;;;;10.10;5.50;;;;;;;-143.21;56.44;73012.25;6096873;23;20243;-87
2023/12/27 00:14:17;;;;;;;10.90;5.37;;;;;;;-143.21;56.78;73012.25;6098620;23;20161;-86
2023/12/27 00:16:43;;;;;;;8.53;5.00;;;;;;;-143.21;57.26;73032.09;6097387;23;20191;-87
2023/12/27 00:19:10;;;;;;;11.07;5.33;;;;;;;-143.21;57.00;73028.13;6095383;23;20213;-88
2023/12/27 00:21:37;;;;;;;10.13;5.27;;;;;;;-143.21;56.69;73012.25;6095926;23;20176;-87
2023/12/27 00:24:04;;;;;;;9.07;5.33;;;;;;;-143.21;56.37;73022.19;6096158;23;20172;-88
2023/12/27 00:26:32;;;;;;;14.60;7.10;;;;;;;-143.21;56.88;73018.22;6095205;23;20161;-88
2023/12/27 00:29:00;;;;;;;14.33;6.93;;;;;;;-143.21;56.63;73024.16;6095407;23;20283;-87
2023/12/27 00:31:29;;;;;;;12.80;6.40;;;;;;;-143.21;56.90;73038.03;6094803;23;20211;-89
2023/12/27 00:33:56;;;;;;;13.83;6.10;;;;;;;-143.21;56.61;73038.03;6096739;23;20173;-88
2023/12/27 00:36:29;;;;;;;13.17;6.20;;;;;;;-143.21;57.06;73042.00;6096671;23;20627;-86
2023/12/27 00:38:56;;;;;;;13.07;5.70;;;;;;;-143.21;57.19;73047.97;6097066;23;20176;-86
2023/12/27 00:41:23;;;;;;;11.70;5.33;;;;;;;-143.21;57.11;73049.94;6102089;23;20169;-88
2023/12/27 00:43:50;;;;;;;11.80;5.20;;;;;;;-143.21;56.82;73057.88;6096234;23;20173;-88
2023/12/27 00:46:18;;;;;;;9.47;5.20;;;;;;;-143.21;55.77;73061.84;6095760;23;20168;-86
2023/12/27 00:48:49;;;;;;;14.50;6.10;;;;;;;-143.21;55.69;73081.69;6095686;23;20247;-87
2023/12/27 00:51:22;;;;;;;10.67;5.47;;;;;;;-143.21;55.48;73095.56;6094482;23;20628;-87
2023/12/27 00:53:51;;;;;;;12.13;6.13;;;;;;;-143.21;56.22;73113.41;6094831;23;20208;-86
2023/12/27 00:56:18;;;;;;;13.57;5.77;;;;;;;-143.21;56.80;73135.25;6095741;23;20173;-87
2023/12/27 00:58:49;;;;;;;11.67;5.80;;;;;;;-143.21;56.84;73139.22;6094603;23;20675;-88
2023/12/27 01:01:17;;;;;;;12.27;5.67;;;;;;;-143.21;57.13;73153.09;6095142;23;20169;-87
2023/12/27 01:03:44;;;;;;;11.60;5.77;;;;;;;-143.21;57.27;73163.00;6096742;23;20232;-87
2023/12/27 01:06:13;;;;;;;11.07;5.83;;;;;;;-143.21;57.38;73176.91;6104556;23;20703;-85
2023/12/27 01:08:39;;;;;;;13.70;5.63;;;;;;;-143.21;57.92;73182.84;6104852;23;20180;-87
2023/12/27 01:11:06;;;;;;;9.33;6.33;;;;;;;-143.21;57.71;73190.78;6101746;23;20199;-88
2023/12/27 01:13:33;;;;;;;12.13;5.70;;;;;;;-143.21;58.26;73206.66;6094880;23;20211;-86
2023/12/27 01:16:06;;;;;;;14.13;6.37;;;;;;;-143.21;58.41;73212.59;6094370;23;20528;-88
2023/12/27 01:18:36;;;;;;;13.50;6.13;;;;;;;-143.21;58.70;73216.56;6094057;23;20157;-87
2023/12/27 01:21:06;;;;;;;12.00;5.80;;;;;;;-143.21;59.53;73234.41;6095943;23;20196;-89
2023/12/27 01:23:38;;;;;;;11.43;5.93;;;;;;;-143.21;59.97;73240.38;6096299;23;20180;-88
2023/12/27 01:26:08;;;;;;;12.07;6.40;;;;;;;-143.21;61.18;73236.41;6096534;23;20168;-89
2023/12/27 01:28:35;;;;;;;15.50;7.10;;;;;;;-143.21;62.79;73252.28;6099416;23;20170;-89
2023/12/27 01:31:08;;;;;;;14.97;8.23;;;;;;;-143.21;62.69;73240.38;6105812;23;20197;-88
2023/12/27 01:33:34;;;;;;;16.47;8.83;;;;;;;-143.21;64.05;73256.25;6094763;23;20512;-87
2023/12/27 01:36:11;;;;;;;18.00;8.83;;;;;;;-143.21;64.38;73252.28;6094817;23;20883;-87
2023/12/27 01:38:39;;;;;;;17.47;8.90;;;;;;;-143.21;64.04;73256.25;6094217;23;20224;-88
2023/12/27 01:41:06;;;;;;;18.73;8.57;;;;;;;-143.21;64.56;73246.31;6093229;23;20172;-87
2023/12/27 01:43:38;;;;;;;17.33;9.17;;;;;;;-143.21;63.99;73222.53;6093323;23;20172;-88
2023/12/27 01:46:07;;;;;;;19.23;10.20;;;;;;;-143.21;64.02;73222.53;6092084;23;20715;-88
2023/12/27 01:48:37;;;;;;;17.43;9.27;;;;;;;-143.21;63.88;73218.56;6093477;23;20252;-88
2023/12/27 01:51:04;;;;;;;18.07;9.03;;;;;;;-143.21;63.93;73208.63;6085172;23;20177;-89
2023/12/27 01:53:31;;;;;;;17.43;9.63;;;;;;;-143.21;63.86;73204.66;6093829;23;20165;-89
2023/12/27 01:56:00;;;;;;;16.07;9.80;;;;;;;-143.21;63.75;73212.59;6095018;23;20173;-88
2023/12/27 01:58:28;;;;;;;19.43;8.50;;;;;;;-143.21;63.91;73222.53;6097789;23;20169;-88
2023/12/27 02:00:56;;;;;;;18.03;8.03;;;;;;;-143.21;63.79;73204.66;6096683;23;20663;-88
2023/12/27 02:03:23;;;;;;;16.37;7.57;;;;;;;-143.21;63.56;73188.78;6094785;23;20164;-88
2023/12/27 02:05:53;;;;;;;11.70;6.47;;;;;;;-143.21;63.22;73182.84;6094369;23;20186;-87
2023/12/27 02:08:23;;;;;;;11.33;6.73;;;;;;;-143.21;63.71;73188.78;6093096;23;20644;-87
2023/12/27 02:10:50;;;;;;;13.17;7.20;;;;;;;-143.21;63.27;73186.81;6094420;23;20581;-89
2023/12/27 02:13:19;;;;;;;14.20;7.33;;;;;;;-143.21;63.46;73166.97;6093767;23;20236;-88
2023/12/27 02:15:47;;;;;;;10.33;6.00;;;;;;;-143.21;62.96;73157.06;6095471;23;20255;-88
2023/12/27 02:18:15;;;;;;;9.17;5.93;;;;;;;-143.21;63.17;73141.19;6096017;23;20181;-86
2023/12/27 02:20:46;;;;;;;10.63;5.63;;;;;;;-143.21;63.01;73127.31;6097625;23;20303;-87
2023/12/27 02:23:16;;;;;;;10.83;5.93;;;;;;;-143.21;62.68;73121.34;6095322;23;20169;-88
2023/12/27 02:25:45;;;;;;;11.50;5.80;;;;;;;-143.21;62.49;73105.47;6093286;23;20173;-86
2023/12/27 02:28:12;;;;;;;10.20;5.23;;;;;;;-143.21;62.15;73095.56;6093154;23;20292;-86
2023/12/27 02:30:39;;;;;;;10.43;5.03;;;;;;;-143.21;61.91;73089.63;6093348;23;20254;-87
2023/12/27 02:33:06;;;;;;;11.20;5.63;;;;;;;-143.21;62.30;73085.66;6092335;23;20173;-85
2023/12/27 02:35:33;;;;;;;13.57;5.70;;;;;;;-143.21;62.27;73085.66;6093584;23;20169;-86
2023/12/27 02:38:01;;;;;;;11.43;5.80;;;;;;;-143.21;62.49;73087.63;6092490;23;20997;-85
2023/12/27 02:40:28;;;;;;;9.13;5.60;;;;;;;-143.21;62.21;73081.69;6091574;23;20192;-86
2023/12/27 02:42:56;;;;;;;14.47;6.00;;;;;;;-143.21;62.34;73071.75;6092854;23;21013;-85
2023/12/27 02:45:23;;;;;;;10.10;5.93;;;;;;;-143.21;61.98;73071.75;6093488;23;20172;-85
2023/12/27 02:47:52;;;;;;;14.50;6.43;;;;;;;-143.21;61.69;73077.72;6093579;23;20172;-86
2023/12/27 02:50:20;;;;;;;13.07;6.57;;;;;;;-143.21;61.91;73081.69;6093012;23;20169;-87
2023/12/27 02:52:47;;;;;;;15.50;6.00;;;;;;;-143.21;62.15;73069.78;6092783;23;20171;-86
2023/12/27 02:55:14;;;;;;;11.17;5.57;;;;;;;-143.21;61.92;73087.63;6093528;23;20639;-86
2023/12/27 02:57:41;;;;;;;13.27;6.27;;;;;;;-143.21;62.00;73083.66;6092676;23;20638;-86
2023/12/27 03:00:18;;;;;;;15.73;6.43;;;;;;;-143.21;61.57;73077.72;6092608;23;20200;-87
2023/12/27 03:02:45;;;;;;;15.10;6.97;;;;;;;-143.21;61.89;73077.72;6093082;23;20157;-87
2023/12/27 03:05:12;;;;;;;14.97;7.03;;;;;;;-143.21;61.87;73081.69;6092934;23;20253;-85
2023/12/27 03:07:39;;;;;;;16.10;7.93;;;;;;;-143.21;61.78;73097.56;6094136;23;20188;-86
2023/12/27 03:10:11;;;;;;;14.53;8.10;;;;;;;-143.21;61.81;73091.59;6093217;23;20169;-87
2023/12/27 03:12:38;;;;;;;16.57;8.33;;;;;;;-143.21;61.44;73087.63;6095005;23;20630;-88
2023/12/27 03:15:05;;;;;;;15.37;7.20;;;;;;;-143.21;61.82;73089.63;6095335;23;20173;-88
2023/12/27 03:17:36;;;;;;;15.97;7.73;;;;;;;-143.21;61.89;73101.53;6093052;23;20176;-87
2023/12/27 03:20:02;;;;;;;18.13;7.20;;;;;;;-143.21;61.99;73101.53;6095753;23;20536;-88
2023/12/27 03:22:29;;;;;;;13.20;7.10;;;;;;;-143.21;61.91;73109.44;6097385;23;20189;-88
2023/12/27 03:24:58;;;;;;;13.93;7.17;;;;;;;-143.21;61.81;73109.44;6104528;23;20173;-87
2023/12/27 03:27:25;;;;;;;15.87;7.47;;;;;;;-143.21;61.91;73115.41;6106229;23;20891;-87
2023/12/27 03:29:52;;;;;;;15.03;7.53;;;;;;;-143.21;62.11;73117.38;6097257;23;20173;-86
2023/12/27 03:32:18;;;;;;;18.27;7.37;;;;;;;-143.21;61.96;73119.38;6094604;23;20176;-88
2023/12/27 03:34:46;;;;;;;16.20;8.07;;;;;;;-143.21;61.67;73121.34;6095259;23;20169;-87
2023/12/27 03:37:18;;;;;;;18.57;8.97;;;;;;;-143.21;62.38;73125.31;6094956;23;20509;-86
2023/12/27 03:39:50;;;;;;;18.50;8.50;;;;;;;-143.21;62.56;73131.28;6098746;23;20204;-88
2023/12/27 03:42:22;;;;;;;20.13;8.43;;;;;;;-143.21;62.21;73137.22;6099843;23;20612;-87
2023/12/27 03:44:52;;;;;;;21.00;8.80;;;;;;;-143.21;62.64;73143.16;6098288;23;20161;-86
2023/12/27 03:47:19;;;;;;;17.80;8.60;;;;;;;-143.21;62.62;73155.06;6102405;23;20161;-87
2023/12/27 03:49:47;;;;;;;18.53;8.47;;;;;;;-143.21;63.50;73161.03;6072422;23;20179;-88
2023/12/27 03:52:14;;;;;;;16.53;7.50;;;;;;;-143.21;63.41;73159.03;6098435;23;20173;-88
2023/12/27 03:54:42;;;;;;;18.07;7.77;;;;;;;-143.21;63.38;73155.06;6100714;23;20173;-87
2023/12/27 03:57:51;;;;;;;13.93;7.30;;;;;;;-143.21;63.33;73166.97;6098777;23;20172;-86
2023/12/27 04:00:18;;;;;;;15.67;6.93;;;;;;;-143.21;64.01;73170.94;6098006;23;20240;-87
2023/12/27 04:02:46;;;;;;;16.97;6.97;;;;;;;-143.21;63.75;73172.94;6095187;23;21025;-85
2023/12/27 04:05:14;;;;;;;15.80;7.33;;;;;;;-143.21;63.43;73174.91;6096730;23;20199;-87
2023/12/27 04:07:45;;;;;;;16.93;7.70;;;;;;;-143.21;63.75;73186.81;6100375;23;20196;-86
2023/12/27 04:10:11;;;;;;;13.60;7.53;;;;;;;-143.21;64.50;73184.84;6099827;23;20172;-88
2023/12/27 04:12:38;;;;;;;19.40;7.67;;;;;;;-143.21;64.25;73190.78;6097256;23;20183;-87
2023/12/27 04:15:08;;;;;;;13.00;7.17;;;;;;;-143.21;64.61;73196.72;6097504;23;20169;-87
2023/12/27 04:17:35;;;;;;;18.37;7.87;;;;;;;-143.21;64.37;73196.72;6097281;23;20175;-88
2023/12/27 04:20:02;;;;;;;17.97;8.83;;;;;;;-143.21;64.62;73196.72;6096170;23;20220;-88
2023/12/27 04:22:30;;;;;;;18.03;8.53;;;;;;;-143.21;64.35;73190.78;6095879;23;20185;-88
2023/12/27 04:24:57;;;;;;;16.50;8.87;;;;;;;-143.21;64.53;73186.81;6096224;23;20172;-86
2023/12/27 04:27:24;;;;;;;16.67;9.07;;;;;;;-143.21;64.70;73188.78;6095895;23;20177;-87
2023/12/27 04:29:50;;;;;;;19.53;9.80;;;;;;;-143.21;64.83;73194.75;6101757;23;20165;-87
2023/12/27 04:32:17;;;;;;;17.27;8.50;;;;;;;-143.21;64.73;73198.72;6098389;23;20157;-87
2023/12/27 04:34:45;;;;;;;16.53;9.13;;;;;;;-143.21;64.82;73200.69;6101530;23;20322;-87
2023/12/27 04:37:12;;;;;;;19.30;8.70;;;;;;;-143.21;64.78;73198.72;6099006;23;20169;-88
2023/12/27 04:39:40;;;;;;;15.30;7.77;;;;;;;-143.21;65.06;73198.72;6096343;23;20551;-88
2023/12/27 04:42:07;;;;;;;16.20;7.73;;;;;;;-143.21;64.99;73198.72;6095177;23;20561;-89
2023/12/27 04:44:34;;;;;;;19.60;8.17;;;;;;;-143.21;65.14;73196.72;6094468;23;20169;-89
2023/12/27 04:47:02;;;;;;;18.90;8.23;;;;;;;-143.21;65.12;73186.81;6093656;23;20176;-86
2023/12/27 04:49:29;;;;;;;23.53;9.67;;;;;;;-143.21;65.41;73194.75;6094570;23;20169;-87
2023/12/27 04:51:55;;;;;;;19.87;9.70;;;;;;;-143.21;65.62;73188.78;6094802;23;20169;-86
2023/12/27 04:54:22;;;;;;;18.73;9.53;;;;;;;-143.21;65.85;73204.66;6092866;23;20446;-88
2023/12/27 04:56:54;;;;;;;15.50;9.17;;;;;;;-143.21;65.89;73212.59;6093606;23;20706;-88
2023/12/27 04:59:21;;;;;;;15.87;8.60;;;;;;;-143.21;66.20;73212.59;6094362;23;20162;-88
2023/12/27 05:01:49;;;;;;;17.17;8.00;;;;;;;-143.21;66.24;73212.59;6096554;23;20275;-89
2023/12/27 05:04:19;;;;;;;18.97;8.50;;;;;;;-143.21;66.67;73212.59;6096023;23;20324;-87
2023/12/27 05:06:46;;;;;;;14.83;8.23;;;;;;;-143.21;66.29;73210.63;6096136;23;20196;-87
2023/12/27 05:09:16;;;;;;;18.13;9.40;;;;;;;-143.21;66.43;73212.59;6095383;23;20180;-88
2023/12/27 05:11:43;;;;;;;17.93;8.57;;;;;;;-143.21;66.24;73214.59;6098882;23;20162;-89
2023/12/27 05:14:12;;;;;;;23.87;8.93;;;;;;;-143.21;66.52;73216.56;6095906;23;20542;-89
2023/12/27 05:16:39;;;;;;;22.20;10.13;;;;;;;-143.21;66.51;73206.66;6095914;23;20512;-88
2023/12/27 05:19:05;;;;;;;20.97;9.63;;;;;;;-143.21;66.46;73216.56;6096034;23;20169;-89
2023/12/27 05:21:32;;;;;;;22.47;10.43;;;;;;;-143.21;66.69;73214.59;6095718;23;20682;-90
2023/12/27 05:23:59;;;;;;;19.03;10.63;;;;;;;-143.21;66.34;73218.56;6097027;23;20240;-89
2023/12/27 05:26:26;;;;;;;21.53;10.43;;;;;;;-143.21;66.37;73214.59;6097888;23;20172;-87
2023/12/27 05:28:53;;;;;;;25.33;13.07;;;;;;;-143.21;67.02;73224.50;6106717;23;20224;-87
2023/12/27 05:31:21;;;;;;;32.30;14.57;;;;;;;-143.21;66.33;73220.53;6098148;23;20294;-87
2023/12/27 05:33:48;;;;;;;24.63;13.33;;;;;;;-143.21;66.29;73224.50;6096021;23;20652;-87
2023/12/27 05:36:15;;;;;;;25.43;13.00;;;;;;;-143.21;66.83;73240.38;6095986;23;20169;-87
2023/12/27 05:38:44;;;;;;;22.70;10.30;;;;;;;-143.21;67.16;73240.38;6095881;23;20571;-88
2023/12/27 05:41:11;;;;;;;18.13;9.87;;;;;;;-143.21;67.30;73252.28;6097750;23;20231;-86
2023/12/27 05:43:38;;;;;;;20.90;10.87;;;;;;;-143.21;67.53;73258.22;6098004;23;20229;-87
2023/12/27 05:46:05;;;;;;;15.60;8.20;;;;;;;-143.21;67.29;73266.16;6099298;23;20173;-85
2023/12/27 05:48:33;;;;;;;10.60;6.70;;;;;;;-143.21;67.51;73276.06;6103171;23;20173;-88
2023/12/27 05:51:00;;;;;;;11.37;6.77;;;;;;;-143.21;68.10;73287.97;6095538;23;20585;-87
2023/12/27 05:53:27;;;;;;;17.27;6.90;;;;;;;-143.21;67.98;73289.97;6095353;23;20169;-86
2023/12/27 05:55:54;;;;;;;13.03;6.63;;;;;;;-143.21;67.96;73297.91;6096130;23;20176;-88
2023/12/27 05:58:23;;;;;;;13.67;7.30;;;;;;;-143.21;67.80;73295.91;6097127;23;20518;-88
2023/12/27 06:00:50;;;;;;;12.80;7.47;;;;;;;-143.21;68.34;73301.88;6095660;23;20208;-87
2023/12/27 06:03:17;;;;;;;13.50;7.07;;;;;;;-143.21;68.47;73301.88;6098989;23;20173;-87
2023/12/27 06:05:45;;;;;;;13.40;7.00;;;;;;;-143.21;68.32;73307.81;6094633;23;20169;-88
2023/12/27 06:08:20;;;;;;;15.37;7.97;;;;;;;-143.21;68.42;73309.81;6094477;23;20173;-87
2023/12/27 06:10:47;;;;;;;14.70;7.90;;;;;;;-143.21;68.31;73313.78;6096775;23;20233;-88
2023/12/27 06:13:14;;;;;;;13.40;7.10;;;;;;;-143.21;68.43;73311.78;6095403;23;20168;-87
2023/12/27 06:15:42;;;;;;;15.47;6.90;;;;;;;-143.21;68.79;73321.72;6095729;23;20231;-89
2023/12/27 06:18:09;;;;;;;13.43;8.07;;;;;;;-143.21;69.09;73329.63;6094788;23;20519;-88
2023/12/27 06:20:36;;;;;;;17.00;7.40;;;;;;;-143.21;69.08;73333.59;6098643;23;20264;-90
2023/12/27 06:23:04;;;;;;;17.80;7.93;;;;;;;-143.21;69.42;73339.56;6095406;23;20161;-87
2023/12/27 06:25:33;;;;;;;16.17;8.50;;;;;;;-143.21;69.84;73331.63;6094359;23;20173;-87
2023/12/27 06:27:59;;;;;;;15.57;7.37;;;;;;;-143.21;69.29;73323.69;6093809;23;20172;-86
2023/12/27 06:30:27;;;;;;;12.60;7.10;;;;;;;-143.21;69.84;73315.75;6093986;23;20315;-87
2023/12/27 06:32:57;;;;;;;14.57;7.77;;;;;;;-143.21;69.73;73319.72;6094355;23;20509;-86
2023/12/27 06:35:26;;;;;;;14.07;6.77;;;;;;;-143.21;69.24;73311.78;6094037;23;20176;-88
2023/12/27 06:37:57;;;;;;;15.57;7.67;;;;;;;-143.21;69.53;73321.72;6094655;23;20727;-88
2023/12/27 06:40:28;;;;;;;16.63;8.03;;;;;;;-143.21;69.54;73315.75;6096607;23;20149;-86
2023/12/27 06:42:54;;;;;;;18.33;8.77;;;;;;;-143.21;69.35;73321.72;6096083;23;20171;-87
2023/12/27 06:45:22;;;;;;;23.93;12.00;;;;;;;-143.21;69.94;73321.72;6093440;23;20244;-87
2023/12/27 06:47:49;;;;;;;16.63;8.90;;;;;;;-143.21;69.71;73331.63;6093488;23;20164;-88
2023/12/27 06:50:18;;;;;;;25.43;11.40;;;;;;;-143.21;70.26;73327.66;6093373;23;20173;-88
2023/12/27 06:52:49;;;;;;;26.47;13.20;;;;;;;-143.21;69.92;73327.66;6095583;23;20172;-90
2023/12/27 06:55:16;;;;;;;25.77;13.70;;;;;;;-143.21;70.12;73325.69;6094883;23;20510;-89
2023/12/27 06:57:47;;;;;;;30.60;15.57;;;;;;;-143.21;69.76;73327.66;6095569;23;20639;-88
2023/12/27 07:00:15;;;;;;;28.93;14.43;;;;;;;-143.21;70.21;73347.50;6096754;23;20153;-90
2023/12/27 07:02:42;;;;;;;28.70;14.67;;;;;;;-143.21;69.95;73337.56;6095332;23;20211;-88
2023/12/27 07:05:12;;;;;;;27.10;14.77;;;;;;;-143.21;69.83;73325.69;6095699;23;20327;-88
2023/12/27 07:07:39;;;;;;;29.80;14.53;;;;;;;-143.21;69.58;73337.56;6096287;23;20207;-88
2023/12/27 07:10:11;;;;;;;28.70;15.37;;;;;;;-143.21;69.68;73355.44;6096333;23;20165;-90
2023/12/27 07:12:38;;;;;;;34.03;17.30;;;;;;;-143.21;69.51;73357.41;6095565;23;20173;-89
2023/12/27 07:15:13;;;;;;;35.23;17.53;;;;;;;-143.21;70.00;73371.28;6096485;23;20171;-87
2023/12/27 07:17:42;;;;;;;28.00;15.80;;;;;;;-143.21;70.23;73373.28;6097032;23;20153;-90
2023/12/27 07:20:10;;;;;;;27.93;14.87;;;;;;;-143.21;69.79;73367.34;6094206;23;20175;-85
2023/12/27 07:22:37;;;;;;;27.17;13.20;;;;;;;-143.21;70.03;73371.28;6094285;23;20196;-87
2023/12/27 07:25:05;;;;;;;23.67;12.43;;;;;;;-143.21;69.53;73363.38;6095045;23;20664;-87
2023/12/27 07:27:32;;;;;;;32.17;17.27;;;;;;;-143.21;68.92;73359.41;6095789;23;20165;-87
2023/12/27 07:29:59;;;;;;;40.37;22.43;;;;;;;-143.21;68.87;73347.50;6105136;23;20169;-87
2023/12/27 07:32:27;;;;;;;40.53;22.70;;;;;;;-143.21;68.32;73345.50;6102163;23;20157;-89
2023/12/27 07:34:57;;;;;;;38.27;17.83;;;;;;;-143.21;68.68;73333.59;6098629;23;20161;-89
2023/12/27 07:37:24;;;;;;;20.03;11.07;;;;;;;-143.21;68.09;73323.69;6096674;23;20163;-88
2023/12/27 07:39:57;;;;;;;23.53;11.90;;;;;;;-143.21;68.00;73321.72;6097135;23;20175;-87
2023/12/27 07:42:24;;;;;;;23.57;13.20;;;;;;;-143.21;67.58;73305.84;6098664;23;20271;-89
2023/12/27 07:44:52;;;;;;;24.40;14.33;;;;;;;-143.21;67.90;73301.88;6098175;23;20165;-88
2023/12/27 07:47:19;;;;;;;16.83;9.33;;;;;;;-143.21;67.11;73287.97;6095674;23;20188;-86
2023/12/27 07:49:47;;;;;;;14.03;7.73;;;;;;;-143.21;67.56;73305.84;6094342;23;20173;-82
2023/12/27 07:52:17;;;;;;;13.43;6.20;;;;;;;-143.21;68.03;73313.78;6094585;23;20168;-86
2023/12/27 07:54:44;;;;;;;20.10;6.80;;;;;;;-143.21;68.12;73313.78;6094471;23;20203;-85
2023/12/27 07:57:11;;;;;;;13.40;6.50;;;;;;;-143.21;68.24;73327.66;6092602;23;20173;-86
2023/12/27 07:59:38;;;;;;;13.60;7.13;;;;;;;-143.21;68.45;73339.56;6092953;23;20982;-85
2023/12/27 08:02:05;;;;;;;14.57;7.43;;;;;;;-143.21;68.48;73325.69;6094242;23;20252;-82
2023/12/27 08:04:31;;;;;;;15.77;7.37;;;;;;;-143.21;68.49;73319.72;6091261;23;20173;-82
2023/12/27 08:07:06;;;;;;;15.10;6.87;;;;;;;-143.21;68.37;73315.75;6091090;23;20177;-82
2023/12/27 08:09:35;;;;;;;12.63;6.40;;;;;;;-143.21;68.19;73305.84;6092612;23;20632;-81
2023/12/27 08:12:02;;;;;;;13.47;6.50;;;;;;;-143.21;68.14;73317.75;6093361;23;20165;-81
2023/12/27 08:14:31;;;;;;;15.03;7.87;;;;;;;-143.21;67.29;73311.78;6094452;23;20237;-79
2023/12/27 08:16:58;;;;;;;14.70;7.47;;;;;;;-143.21;67.72;73309.81;6092825;23;20280;-82
2023/12/27 08:19:30;;;;;;;16.17;6.70;;;;;;;-143.21;67.51;73315.75;6093732;23;20172;-82
2023/12/27 08:22:04;;;;;;;16.07;7.17;;;;;;;-143.21;67.36;73301.88;6093218;23;20267;-82
2023/12/27 08:24:31;;;;;;;15.97;7.20;;;;;;;-143.21;67.11;73293.94;6090154;23;20571;-83
2023/12/27 08:26:58;;;;;;;12.13;6.67;;;;;;;-143.21;67.20;73303.84;6087696;23;20177;-81
2023/12/27 08:29:27;;;;;;;14.63;7.00;;;;;;;-143.21;67.45;73303.84;6090553;23;20172;-83
2023/12/27 08:32:01;;;;;;;16.10;6.73;;;;;;;-143.21;66.84;73299.88;6092391;23;20197;-86
2023/12/27 08:34:29;;;;;;;11.83;6.30;;;;;;;-143.21;67.11;73297.91;6094774;23;20495;-85
2023/12/27 08:37:02;;;;;;;11.03;6.50;;;;;;;-143.21;67.14;73303.84;6094613;23;20173;-82
2023/12/27 08:39:29;;;;;;;15.07;6.57;;;;;;;-143.21;67.12;73307.81;6092557;23;20158;-82
2023/12/27 08:41:56;;;;;;;15.70;6.77;;;;;;;-143.21;67.10;73297.91;6093658;23;20197;-82
2023/12/27 08:44:22;;;;;;;15.17;7.17;;;;;;;-143.21;66.90;73295.91;6093754;23;20169;-81
2023/12/27 08:46:49;;;;;;;12.37;6.57;;;;;;;-143.21;66.99;73311.78;6094997;23;20197;-83
2023/12/27 08:49:19;;;;;;;15.43;7.10;;;;;;;-143.21;67.04;73305.84;6094751;23;20169;-86
2023/12/27 08:51:46;;;;;;;13.67;6.83;;;;;;;-143.21;66.89;73305.84;6094082;23;20165;-83
2023/12/27 08:54:14;;;;;;;14.00;6.70;;;;;;;-143.21;67.08;73297.91;6095040;23;20191;-87
2023/12/27 08:56:41;;;;;;;20.77;8.30;;;;;;;-143.21;66.64;73299.88;6093422;23;20173;-82
2023/12/27 08:59:08;;;;;;;21.50;9.13;;;;;;;-143.21;66.23;73287.97;6095273;23;20173;-77
2023/12/27 09:01:35;;;;;;;16.40;8.97;;;;;;;-143.21;66.51;73287.97;6091181;23;20189;-79
2023/12/27 09:04:02;;;;;;;14.07;7.40;;;;;;;-143.21;65.48;73272.13;6093313;23;20196;-79
2023/12/27 09:06:29;;;;;;;13.00;6.60;;;;;;;-143.21;65.07;73266.16;6092833;23;20577;-83
2023/12/27 09:08:56;;;;;;;13.27;6.67;;;;;;;-143.21;65.07;73252.28;6094813;23;20224;-81
2023/12/27 09:11:26;;;;;;;11.97;6.30;;;;;;;-143.21;65.05;73250.28;6094191;23;20612;-81
2023/12/27 09:13:53;;;;;;;12.23;6.00;;;;;;;-143.21;65.03;73248.31;6094849;23;20161;-81
2023/12/27 09:16:20;;;;;;;11.73;6.10;;;;;;;-143.21;64.91;73234.41;6093646;23;20165;-81
2023/12/27 09:18:47;;;;;;;14.10;6.53;;;;;;;-143.21;64.74;73222.53;6093411;23;20177;-79
2023/12/27 09:21:13;;;;;;;12.50;6.90;;;;;;;-143.21;64.23;73212.59;6094117;23;20169;-81
2023/12/27 09:23:41;;;;;;;11.27;5.80;;;;;;;-143.21;64.32;73212.59;6091705;23;20173;-80
2023/12/27 09:26:12;;;;;;;12.13;5.63;;;;;;;-143.21;64.17;73204.66;6093248;23;20180;-80
2023/12/27 09:28:40;;;;;;;8.83;5.40;;;;;;;-143.21;63.87;73198.72;6091244;23;20580;-80
2023/12/27 09:31:08;;;;;;;11.97;5.43;;;;;;;-143.21;63.15;73180.88;6094034;23;20750;-81
2023/12/27 09:33:35;;;;;;;14.33;5.80;;;;;;;-143.21;62.46;73168.97;6093551;23;20569;-80
2023/12/27 09:36:02;;;;;;;10.70;5.03;;;;;;;-143.21;63.14;73165.00;6091968;23;20173;-81
2023/12/27 09:38:28;;;;;;;12.40;5.33;;;;;;;-143.21;61.81;73149.13;6090485;23;20196;-81
2023/12/27 09:40:56;;;;;;;12.27;5.60;;;;;;;-143.21;61.31;73139.22;6091099;23;20723;-81
2023/12/27 09:43:24;;;;;;;10.17;6.30;;;;;;;-143.21;61.36;73135.25;6093061;23;20200;-80
2023/12/27 09:45:55;;;;;;;8.97;5.20;;;;;;;-143.21;61.36;73125.31;6092634;23;20168;-80
2023/12/27 09:48:27;;;;;;;8.27;4.80;;;;;;;-143.21;61.28;73127.31;6092749;23;20608;-83
2023/12/27 09:50:54;;;;;;;8.60;4.37;;;;;;;-143.21;60.75;73123.34;6093151;23;20162;-80
2023/12/27 09:53:21;;;;;;;14.40;5.83;;;;;;;-143.21;60.97;73125.31;6094122;23;20165;-81
2023/12/27 09:55:49;;;;;;;9.27;5.70;;;;;;;-143.21;60.14;73097.56;6093622;23;20634;-81
2023/12/27 09:58:17;;;;;;;14.43;6.93;;;;;;;-143.21;58.54;73014.25;6092950;23;20528;-80
2023/12/27 10:00:45;;;;;;;10.07;5.90;;;;;;;-143.21;53.98;72827.78;6093091;23;20173;-81
2023/12/27 10:03:26;;;;;;;10.70;4.70;;;;;;;-143.21;46.85;72583.84;6093439;23;20258;-80
2023/12/27 10:06:01;;;;;;;7.67;4.00;;;;;;;-143.21;41.87;72377.56;6094155;23;20267;-80
2023/12/27 10:08:28;;;;;;;7.90;4.30;;;;;;;-143.21;38.86;72254.63;6093255;23;20231;-80
2023/12/27 10:10:55;;;;;;;10.63;3.93;;;;;;;-143.21;37.46;72167.38;6093499;23;20207;-80
2023/12/27 10:13:22;;;;;;;8.77;4.40;;;;;;;-143.21;36.73;72030.53;6093796;23;20169;-80
2023/12/27 10:15:49;;;;;;;8.05;4.28;;;;;;;-143.21;34.66;71949.25;6093085;23;20220;-81
2023/12/27 10:18:19;;;;;;;10.07;4.70;;;;;;;-143.21;33.83;71933.38;6094081;23;20251;-81
2023/12/27 10:20:48;;;;;;;9.43;5.20;;;;;;;-143.21;34.15;71929.41;6093217;23;20168;-80
2023/12/27 10:23:14;;;;;;;8.30;4.57;;;;;;;-143.21;33.65;71875.88;6092368;23;20945;-81
2023/12/27 10:25:43;;;;;;;8.50;4.75;;;;;;;-143.21;33.72;71953.19;6094064;23;20294;-79
2023/12/27 10:28:10;;;;;;;10.70;5.10;;;;;;;-143.21;35.37;72101.94;6093216;23;20259;-78
2023/12/27 10:30:37;;;;;;;9.80;5.13;;;;;;;-143.21;35.11;72058.31;6090646;23;20200;-78
2023/12/27 10:33:05;;;;;;;8.43;5.20;;;;;;;-143.21;34.69;72002.78;6090794;23;20169;-79
2023/12/27 10:35:35;;;;;;;8.18;4.68;;;;;;;-143.21;34.29;71917.50;6089910;23;20223;-78
2023/12/27 10:38:04;;;;;;;9.82;4.57;;;;;;;-143.21;33.18;71838.19;6090257;23;20967;-79
2023/12/27 10:40:31;;;;;;;7.95;4.75;;;;;;;-143.21;32.51;71766.81;6092659;23;20263;-77
2023/12/27 10:42:58;;;;;;;8.02;4.18;;;;;;;-143.21;31.54;71693.44;6090793;23;20192;-78
2023/12/27 10:45:25;;;;;;;9.55;4.68;;;;;;;-143.21;31.33;71647.84;6091219;23;20172;-79
2023/12/27 10:47:58;;;;;;;6.78;4.22;;;;;;;-143.21;30.51;71586.38;6090909;23;20172;-78
2023/12/27 10:50:26;;;;;;;7.53;3.67;;;;;;;-143.21;30.48;71568.53;6091495;23;20161;-79
2023/12/27 10:53:05;;;;;;;7.43;4.55;;;;;;;-143.21;29.31;71516.97;6092540;23;20221;-79
2023/12/27 10:55:33;;;;;;;8.13;4.82;;;;;;;-143.21;29.98;71538.78;6090961;23;20157;-79
2023/12/27 10:58:01;;;;;;;8.30;4.53;;;;;;;-143.21;29.36;71556.63;6090758;23;20236;-78
2023/12/27 11:00:29;;;;;;;10.15;4.63;;;;;;;-143.21;29.55;71530.88;6090840;23;20262;-79
2023/12/27 11:02:58;;;;;;;7.88;4.82;;;;;;;-143.21;29.59;71538.78;6092453;23;20252;-80
2023/12/27 11:05:28;;;;;;;8.57;5.00;;;;;;;-143.21;29.90;71622.06;6091708;23;20184;-78
2023/12/27 11:07:57;;;;;;;13.65;5.65;;;;;;;-143.21;30.64;71739.06;6091283;23;20202;-78
2023/12/27 11:10:24;;;;;;;9.35;5.75;;;;;;;-143.21;31.57;71816.38;6089273;23;20652;-78
2023/12/27 11:12:52;;;;;;;11.40;5.32;;;;;;;-143.21;31.70;71822.34;6090329;23;20173;-78
2023/12/27 11:15:19;;;;;;;8.07;4.85;;;;;;;-143.21;31.89;71788.63;6092925;23;20257;-79